sensor_id;sensor_type;location;lat;lon;timestamp;pressure;altitude;pressure_sealevel;temperature;humidity
51928;BME280;37953;52.806;18.270;2023-05-07T00:01:22;101354.47;;;7.73;100.00
51928;BME280;37953;52.806;18.270;2023-05-07T00:03:48;101351.03;;;7.73;100.00
51928;BME280;37953;52.806;18.270;2023-05-07T00:06:14;101350.13;;;7.72;100.00
51928;BME280;37953;52.806;18.270;2023-05-07T00:08:40;101351.03;;;7.73;100.00
51928;BME280;37953;52.806;18.270;2023-05-07T00:11:06;101351.91;;;7.73;100.00
51928;BME280;37953;52.806;18.270;2023-05-07T00:13:32;101350.19;;;7.74;100.00
51928;BME280;37953;52.806;18.270;2023-05-07T00:16:03;101346.78;;;7.75;100.00
51928;BME280;37953;52.806;18.270;2023-05-07T00:18:30;101341.59;;;7.75;100.00
51928;BME280;37953;52.806;18.270;2023-05-07T00:20:56;101349.44;;;7.78;100.00
51928;BME280;37953;52.806;18.270;2023-05-07T00:23:22;101353.81;;;7.81;100.00
51928;BME280;37953;52.806;18.270;2023-05-07T00:25:48;101348.63;;;7.81;100.00
51928;BME280;37953;52.806;18.270;2023-05-07T00:28:14;101354.72;;;7.81;100.00
51928;BME280;37953;52.806;18.270;2023-05-07T00:30:40;101350.47;;;7.83;100.00
51928;BME280;37953;52.806;18.270;2023-05-07T00:33:06;101351.28;;;7.82;100.00
51928;BME280;37953;52.806;18.270;2023-05-07T00:35:32;101356.44;;;7.82;100.00
51928;BME280;37953;52.806;18.270;2023-05-07T00:37:58;101360.81;;;7.85;100.00
51928;BME280;37953;52.806;18.270;2023-05-07T00:40:24;101353.88;;;7.82;100.00
51928;BME280;37953;52.806;18.270;2023-05-07T00:42:50;101359.91;;;7.83;100.00
51928;BME280;37953;52.806;18.270;2023-05-07T00:45:16;101360.81;;;7.83;100.00
51928;BME280;37953;52.806;18.270;2023-05-07T00:47:43;101359.91;;;7.83;100.00
51928;BME280;37953;52.806;18.270;2023-05-07T00:50:09;101357.31;;;7.81;100.00
51928;BME280;37953;52.806;18.270;2023-05-07T00:52:38;101361.56;;;7.79;100.00
51928;BME280;37953;52.806;18.270;2023-05-07T00:55:05;101361.50;;;7.78;100.00
51928;BME280;37953;52.806;18.270;2023-05-07T00:57:37;101364.91;;;7.77;100.00
51928;BME280;37953;52.806;18.270;2023-05-07T01:00:06;101365.66;;;7.72;100.00
51928;BME280;37953;52.806;18.270;2023-05-07T01:02:35;101369.94;;;7.70;100.00
51928;BME280;37953;52.806;18.270;2023-05-07T01:05:07;101373.31;;;7.69;100.00
51928;BME280;37953;52.806;18.270;2023-05-07T01:07:35;101368.94;;;7.67;100.00
51928;BME280;37953;52.806;18.270;2023-05-07T01:10:03;101377.53;;;7.66;100.00
51928;BME280;37953;52.806;18.270;2023-05-07T01:12:37;101367.19;;;7.66;100.00
51928;BME280;37953;52.806;18.270;2023-05-07T01:15:04;101372.34;;;7.66;100.00
51928;BME280;37953;52.806;18.270;2023-05-07T01:17:35;101372.41;;;7.67;100.00
51928;BME280;37953;52.806;18.270;2023-05-07T01:20:01;101366.41;;;7.68;100.00
51928;BME280;37953;52.806;18.270;2023-05-07T01:22:34;101373.31;;;7.69;100.00
51928;BME280;37953;52.806;18.270;2023-05-07T01:25:03;101363.84;;;7.68;100.00
51928;BME280;37953;52.806;18.270;2023-05-07T01:27:29;101372.50;;;7.70;100.00
51928;BME280;37953;52.806;18.270;2023-05-07T01:29:55;101372.53;;;7.72;100.00
51928;BME280;37953;52.806;18.270;2023-05-07T01:32:29;101377.72;;;7.72;100.00
51928;BME280;37953;52.806;18.270;2023-05-07T01:35:01;101373.41;;;7.72;100.00
51928;BME280;37953;52.806;18.270;2023-05-07T01:37:28;101374.31;;;7.73;100.00
51928;BME280;37953;52.806;18.270;2023-05-07T01:39:55;101376.03;;;7.74;100.00
51928;BME280;37953;52.806;18.270;2023-05-07T01:42:21;101373.47;;;7.74;100.00
51928;BME280;37953;52.806;18.270;2023-05-07T01:44:47;101383.81;;;7.74;100.00
51928;BME280;37953;52.806;18.270;2023-05-07T01:47:14;101376.00;;;7.72;100.00
51928;BME280;37953;52.806;18.270;2023-05-07T01:49:41;101384.59;;;7.71;100.00
51928;BME280;37953;52.806;18.270;2023-05-07T01:52:08;101381.94;;;7.68;100.00
51928;BME280;37953;52.806;18.270;2023-05-07T01:54:33;101383.63;;;7.68;100.00
51928;BME280;37953;52.806;18.270;2023-05-07T01:57:00;101387.00;;;7.65;100.00
51928;BME280;37953;52.806;18.270;2023-05-07T01:59:26;101387.75;;;7.61;100.00
51928;BME280;37953;52.806;18.270;2023-05-07T02:01:52;101387.66;;;7.58;100.00
51928;BME280;37953;52.806;18.270;2023-05-07T02:04:17;101384.97;;;7.55;100.00
51928;BME280;37953;52.806;18.270;2023-05-07T02:06:43;101385.75;;;7.52;100.00
51928;BME280;37953;52.806;18.270;2023-05-07T02:09:11;101378.81;;;7.50;100.00
51928;BME280;37953;52.806;18.270;2023-05-07T02:11:37;101378.69;;;7.47;100.00
51928;BME280;37953;52.806;18.270;2023-05-07T02:14:03;101372.59;;;7.45;100.00
51928;BME280;37953;52.806;18.270;2023-05-07T02:16:29;101384.59;;;7.43;100.00
51928;BME280;37953;52.806;18.270;2023-05-07T02:18:55;101375.03;;;7.40;100.00
51928;BME280;37953;52.806;18.270;2023-05-07T02:21:22;101375.00;;;7.39;100.00
51928;BME280;37953;52.806;18.270;2023-05-07T02:23:48;101381.84;;;7.37;100.00
51928;BME280;37953;52.806;18.270;2023-05-07T02:26:14;101394.66;;;7.33;100.00
51928;BME280;37953;52.806;18.270;2023-05-07T02:28:40;101393.66;;;7.28;100.00
51928;BME280;37953;52.806;18.270;2023-05-07T02:31:06;101399.69;;;7.29;100.00
51928;BME280;37953;52.806;18.270;2023-05-07T02:33:31;101403.06;;;7.26;100.00
51928;BME280;37953;52.806;18.270;2023-05-07T02:36:08;101409.91;;;7.24;100.00
51928;BME280;37953;52.806;18.270;2023-05-07T02:38:34;101407.19;;;7.21;100.00
51928;BME280;37953;52.806;18.270;2023-05-07T02:41:00;101412.22;;;7.17;100.00
51928;BME280;37953;52.806;18.270;2023-05-07T02:43:26;101410.44;;;7.14;100.00
51928;BME280;37953;52.806;18.270;2023-05-07T02:46:06;101417.31;;;7.13;100.00
51928;BME280;37953;52.806;18.270;2023-05-07T02:48:33;101418.47;;;7.23;100.00
51928;BME280;37953;52.806;18.270;2023-05-07T02:51:00;101419.84;;;7.12;100.00
51928;BME280;37953;52.806;18.270;2023-05-07T02:53:32;101419.59;;;7.04;100.00
51928;BME280;37953;52.806;18.270;2023-05-07T02:55:59;101423.72;;;6.99;100.00
51928;BME280;37953;52.806;18.270;2023-05-07T02:58:25;101427.03;;;6.95;100.00
51928;BME280;37953;52.806;18.270;2023-05-07T03:00:52;101427.81;;;6.92;100.00
51928;BME280;37953;52.806;18.270;2023-05-07T03:03:18;101425.97;;;6.88;100.00
51928;BME280;37953;52.806;18.270;2023-05-07T03:05:44;101424.09;;;6.84;100.00
51928;BME280;37953;52.806;18.270;2023-05-07T03:08:10;101425.81;;;6.84;100.00
51928;BME280;37953;52.806;18.270;2023-05-07T03:10:37;101427.50;;;6.83;100.00
51928;BME280;37953;52.806;18.270;2023-05-07T03:13:03;101429.16;;;6.81;100.00
51928;BME280;37953;52.806;18.270;2023-05-07T03:15:29;101429.06;;;6.78;100.00
51928;BME280;37953;52.806;18.270;2023-05-07T03:17:56;101428.19;;;6.78;100.00
51928;BME280;37953;52.806;18.270;2023-05-07T03:20:25;101431.59;;;6.77;100.00
51928;BME280;37953;52.806;18.270;2023-05-07T03:22:51;101434.09;;;6.75;100.00
51928;BME280;37953;52.806;18.270;2023-05-07T03:25:17;101431.50;;;6.73;100.00
51928;BME280;37953;52.806;18.270;2023-05-07T03:27:42;101437.53;;;6.74;100.00
51928;BME280;37953;52.806;18.270;2023-05-07T03:30:09;101440.03;;;6.71;100.00
51928;BME280;37953;52.806;18.270;2023-05-07T03:32:35;101434.03;;;6.72;100.00
51928;BME280;37953;52.806;18.270;2023-05-07T03:35:01;101435.66;;;6.70;100.00
51928;BME280;37953;52.806;18.270;2023-05-07T03:37:28;101440.06;;;6.72;100.00
51928;BME280;37953;52.806;18.270;2023-05-07T03:39:54;101440.06;;;6.72;100.00
51928;BME280;37953;52.806;18.270;2023-05-07T03:42:19;101444.34;;;6.72;100.00
51928;BME280;37953;52.806;18.270;2023-05-07T03:44:46;101445.19;;;6.71;100.00
51928;BME280;37953;52.806;18.270;2023-05-07T03:47:11;101442.44;;;6.66;100.00
51928;BME280;37953;52.806;18.270;2023-05-07T03:49:39;101451.00;;;6.65;100.00
51928;BME280;37953;52.806;18.270;2023-05-07T03:52:05;101454.38;;;6.63;100.00
51928;BME280;37953;52.806;18.270;2023-05-07T03:54:31;101456.03;;;6.61;100.00
51928;BME280;37953;52.806;18.270;2023-05-07T03:56:57;101461.94;;;6.58;100.00
51928;BME280;37953;52.806;18.270;2023-05-07T03:59:23;101470.53;;;6.57;100.00
51928;BME280;37953;52.806;18.270;2023-05-07T04:01:49;101470.44;;;6.54;100.00
51928;BME280;37953;52.806;18.270;2023-05-07T04:04:15;101471.38;;;6.58;100.00
51928;BME280;37953;52.806;18.270;2023-05-07T04:06:47;101471.34;;;6.56;100.00
51928;BME280;37953;52.806;18.270;2023-05-07T04:09:13;101478.25;;;6.57;100.00
51928;BME280;37953;52.806;18.270;2023-05-07T04:11:39;101486.88;;;6.58;100.00
51928;BME280;37953;52.806;18.270;2023-05-07T04:14:06;101481.78;;;6.59;100.00
51928;BME280;37953;52.806;18.270;2023-05-07T04:16:32;101480.06;;;6.60;100.00
51928;BME280;37953;52.806;18.270;2023-05-07T04:18:58;101494.91;;;6.65;100.00
51928;BME280;37953;52.806;18.270;2023-05-07T04:21:23;101488.88;;;6.65;100.00
51928;BME280;37953;52.806;18.270;2023-05-07T04:23:49;101493.34;;;6.70;100.00
51928;BME280;37953;52.806;18.270;2023-05-07T04:26:15;101490.84;;;6.72;100.00
51928;BME280;37953;52.806;18.270;2023-05-07T04:28:42;101502.16;;;6.76;100.00
51928;BME280;37953;52.806;18.270;2023-05-07T04:31:07;101500.53;;;6.79;100.00
51928;BME280;37953;52.806;18.270;2023-05-07T04:33:34;101498.88;;;6.81;100.00
51928;BME280;37953;52.806;18.270;2023-05-07T04:36:03;101505.91;;;6.85;100.00
51928;BME280;37953;52.806;18.270;2023-05-07T04:38:42;101501.09;;;6.95;100.00
51928;BME280;37953;52.806;18.270;2023-05-07T04:41:08;101503.75;;;6.98;100.00
51928;BME280;37953;52.806;18.270;2023-05-07T04:43:34;101514.31;;;7.04;100.00
51928;BME280;37953;52.806;18.270;2023-05-07T04:46:00;101505.84;;;7.08;100.00
51928;BME280;37953;52.806;18.270;2023-05-07T04:48:26;101509.44;;;7.13;100.00
51928;BME280;37953;52.806;18.270;2023-05-07T04:50:52;101516.53;;;7.19;100.00
51928;BME280;37953;52.806;18.270;2023-05-07T04:53:18;101521.03;;;7.24;100.00
51928;BME280;37953;52.806;18.270;2023-05-07T04:55:44;101516.72;;;7.25;100.00
51928;BME280;37953;52.806;18.270;2023-05-07T04:58:11;101529.06;;;7.33;100.00
51928;BME280;37953;52.806;18.270;2023-05-07T05:00:38;101530.94;;;7.38;100.00
51928;BME280;37953;52.806;18.270;2023-05-07T05:03:10;101530.28;;;7.43;100.00
51928;BME280;37953;52.806;18.270;2023-05-07T05:05:36;101533.81;;;7.47;100.00
51928;BME280;37953;52.806;18.270;2023-05-07T05:08:02;101536.50;;;7.50;100.00
51928;BME280;37953;52.806;18.270;2023-05-07T05:10:28;101535.78;;;7.54;100.00
51928;BME280;37953;52.806;18.270;2023-05-07T05:12:54;101531.53;;;7.56;100.00
51928;BME280;37953;52.806;18.270;2023-05-07T05:15:20;101538.56;;;7.60;100.00
51928;BME280;37953;52.806;18.270;2023-05-07T05:17:46;101540.44;;;7.64;100.00
51928;BME280;37953;52.806;18.270;2023-05-07T05:20:12;101535.34;;;7.67;100.00
51928;BME280;37953;52.806;18.270;2023-05-07T05:22:38;101537.19;;;7.71;100.00
51928;BME280;37953;52.806;18.270;2023-05-07T05:25:04;101547.63;;;7.74;100.00
51928;BME280;37953;52.806;18.270;2023-05-07T05:27:31;101546.88;;;7.77;100.00
51928;BME280;37953;52.806;18.270;2023-05-07T05:29:57;101545.22;;;7.81;100.00
51928;BME280;37953;52.806;18.270;2023-05-07T05:32:23;101551.34;;;7.83;100.00
51928;BME280;37953;52.806;18.270;2023-05-07T05:34:48;101547.94;;;7.84;100.00
51928;BME280;37953;52.806;18.270;2023-05-07T05:37:14;101551.53;;;7.89;100.00
51928;BME280;37953;52.806;18.270;2023-05-07T05:39:40;101545.63;;;7.93;100.00
51928;BME280;37953;52.806;18.270;2023-05-07T05:42:08;101548.31;;;7.96;100.00
51928;BME280;37953;52.806;18.270;2023-05-07T05:44:33;101548.41;;;7.99;100.00
51928;BME280;37953;52.806;18.270;2023-05-07T05:47:00;101556.28;;;8.02;100.00
51928;BME280;37953;52.806;18.270;2023-05-07T05:49:26;101558.09;;;8.06;100.00
51928;BME280;37953;52.806;18.270;2023-05-07T05:51:52;101559.91;;;8.09;100.00
51928;BME280;37953;52.806;18.270;2023-05-07T05:54:17;101554.75;;;8.10;100.00
51928;BME280;37953;52.806;18.270;2023-05-07T05:56:44;101560.97;;;8.15;100.00
51928;BME280;37953;52.806;18.270;2023-05-07T05:59:10;101554.13;;;8.18;100.00
51928;BME280;37953;52.806;18.270;2023-05-07T06:01:36;101556.84;;;8.22;100.00
51928;BME280;37953;52.806;18.270;2023-05-07T06:04:02;101561.25;;;8.25;100.00
51928;BME280;37953;52.806;18.270;2023-05-07T06:06:28;101561.34;;;8.28;100.00
51928;BME280;37953;52.806;18.270;2023-05-07T06:08:54;101557.13;;;8.31;100.00
51928;BME280;37953;52.806;18.270;2023-05-07T06:11:20;101563.28;;;8.35;100.00
51928;BME280;37953;52.806;18.270;2023-05-07T06:13:46;101550.41;;;8.38;100.00
51928;BME280;37953;52.806;18.270;2023-05-07T06:16:13;101551.41;;;8.42;100.00
51928;BME280;37953;52.806;18.270;2023-05-07T06:18:40;101552.38;;;8.45;100.00
51928;BME280;37953;52.806;18.270;2023-05-07T06:21:07;101553.38;;;8.49;100.00
51928;BME280;37953;52.806;18.270;2023-05-07T06:23:32;101557.81;;;8.53;100.00
51928;BME280;37953;52.806;18.270;2023-05-07T06:25:58;101555.28;;;8.56;100.00
51928;BME280;37953;52.806;18.270;2023-05-07T06:28:25;101560.59;;;8.61;100.00
51928;BME280;37953;52.806;18.270;2023-05-07T06:30:51;101559.84;;;8.65;100.00
51928;BME280;37953;52.806;18.270;2023-05-07T06:33:16;101565.13;;;8.68;100.00
51928;BME280;37953;52.806;18.270;2023-05-07T06:35:44;101562.63;;;8.71;100.00
51928;BME280;37953;52.806;18.270;2023-05-07T06:38:10;101564.41;;;8.73;100.00
51928;BME280;37953;52.806;18.270;2023-05-07T06:40:37;101566.19;;;8.76;100.00
51928;BME280;37953;52.806;18.270;2023-05-07T06:43:03;101564.56;;;8.80;100.00
51928;BME280;37953;52.806;18.270;2023-05-07T06:45:29;101562.91;;;8.82;100.00
51928;BME280;37953;52.806;18.270;2023-05-07T06:47:55;101566.47;;;8.85;100.00
51928;BME280;37953;52.806;18.270;2023-05-07T06:50:21;101569.19;;;8.90;100.00
51928;BME280;37953;52.806;18.270;2023-05-07T06:52:47;101562.38;;;8.93;100.00
51928;BME280;37953;52.806;18.270;2023-05-07T06:55:13;101564.22;;;8.98;100.00
51928;BME280;37953;52.806;18.270;2023-05-07T06:57:39;101568.66;;;9.03;100.00
51928;BME280;37953;52.806;18.270;2023-05-07T07:00:05;101567.91;;;9.07;100.00
51928;BME280;37953;52.806;18.270;2023-05-07T07:02:36;101569.81;;;9.13;100.00
51928;BME280;37953;52.806;18.270;2023-05-07T07:05:02;101579.47;;;9.19;100.00
51928;BME280;37953;52.806;18.270;2023-05-07T07:07:28;101569.97;;;9.21;100.00
51928;BME280;37953;52.806;18.270;2023-05-07T07:09:54;101576.19;;;9.26;100.00
51928;BME280;37953;52.806;18.270;2023-05-07T07:12:20;101578.88;;;9.30;100.00
51928;BME280;37953;52.806;18.270;2023-05-07T07:14:48;101579.88;;;9.35;100.00
51928;BME280;37953;52.806;18.270;2023-05-07T07:17:14;101576.56;;;9.41;100.00
51928;BME280;37953;52.806;18.270;2023-05-07T07:19:40;101574.94;;;9.45;100.00
51928;BME280;37953;52.806;18.270;2023-05-07T07:22:05;101580.19;;;9.48;100.00
51928;BME280;37953;52.806;18.270;2023-05-07T07:24:31;101575.09;;;9.51;100.00
51928;BME280;37953;52.806;18.270;2023-05-07T07:26:57;101581.19;;;9.53;100.00
51928;BME280;37953;52.806;18.270;2023-05-07T07:29:23;101582.13;;;9.56;100.00
51928;BME280;37953;52.806;18.270;2023-05-07T07:31:56;101583.09;;;9.60;100.00
51928;BME280;37953;52.806;18.270;2023-05-07T07:34:25;101584.00;;;9.62;100.00
51928;BME280;37953;52.806;18.270;2023-05-07T07:36:50;101588.47;;;9.68;100.00
51928;BME280;37953;52.806;18.270;2023-05-07T07:39:16;101579.94;;;9.72;100.00
51928;BME280;37953;52.806;18.270;2023-05-07T07:41:42;101589.56;;;9.77;100.00
51928;BME280;37953;52.806;18.270;2023-05-07T07:44:08;101584.38;;;9.77;100.00
51928;BME280;37953;52.806;18.270;2023-05-07T07:46:38;101592.31;;;9.84;100.00
51928;BME280;37953;52.806;18.270;2023-05-07T07:49:04;101595.03;;;9.90;100.00
51928;BME280;37953;52.806;18.270;2023-05-07T07:51:30;101595.19;;;9.96;100.00
51928;BME280;37953;52.806;18.270;2023-05-07T07:53:56;101599.66;;;10.02;100.00
51928;BME280;37953;52.806;18.270;2023-05-07T07:56:23;101591.09;;;10.06;100.00
51928;BME280;37953;52.806;18.270;2023-05-07T07:58:49;101586.06;;;10.13;100.00
51928;BME280;37953;52.806;18.270;2023-05-07T08:01:15;101598.28;;;10.17;100.00
51928;BME280;37953;52.806;18.270;2023-05-07T08:03:42;101597.50;;;10.22;100.00
51928;BME280;37953;52.806;18.270;2023-05-07T08:06:08;101602.84;;;10.28;100.00
51928;BME280;37953;52.806;18.270;2023-05-07T08:08:34;101603.00;;;10.34;100.00
51928;BME280;37953;52.806;18.270;2023-05-07T08:11:00;101603.97;;;10.39;100.00
51928;BME280;37953;52.806;18.270;2023-05-07T08:13:26;101604.94;;;10.43;100.00
51928;BME280;37953;52.806;18.270;2023-05-07T08:15:52;101603.31;;;10.48;100.00
51928;BME280;37953;52.806;18.270;2023-05-07T08:18:18;101610.28;;;10.50;100.00
51928;BME280;37953;52.806;18.270;2023-05-07T08:20:44;101612.06;;;10.53;100.00
51928;BME280;37953;52.806;18.270;2023-05-07T08:23:10;101612.13;;;10.54;100.00
51928;BME280;37953;52.806;18.270;2023-05-07T08:25:36;101618.22;;;10.56;100.00
51928;BME280;37953;52.806;18.270;2023-05-07T08:28:03;101620.88;;;10.59;100.00
51928;BME280;37953;52.806;18.270;2023-05-07T08:30:29;101622.66;;;10.61;100.00
51928;BME280;37953;52.806;18.270;2023-05-07T08:32:55;101623.56;;;10.64;100.00
51928;BME280;37953;52.806;18.270;2023-05-07T08:35:20;101616.75;;;10.69;100.00
51928;BME280;37953;52.806;18.270;2023-05-07T08:37:46;101621.13;;;10.72;100.00
51928;BME280;37953;52.806;18.270;2023-05-07T08:40:12;101615.16;;;10.76;100.00
51928;BME280;37953;52.806;18.270;2023-05-07T08:42:39;101618.72;;;10.79;100.00
51928;BME280;37953;52.806;18.270;2023-05-07T08:45:11;101627.47;;;10.85;100.00
51928;BME280;37953;52.806;18.270;2023-05-07T08:47:51;101625.81;;;10.90;100.00
51928;BME280;37953;52.806;18.270;2023-05-07T08:50:18;101620.69;;;10.93;100.00
51928;BME280;37953;52.806;18.270;2023-05-07T08:52:46;101625.03;;;10.94;100.00
51928;BME280;37953;52.806;18.270;2023-05-07T08:55:12;101630.28;;;10.95;100.00
51928;BME280;37953;52.806;18.270;2023-05-07T08:57:39;101637.25;;;10.96;100.00
51928;BME280;37953;52.806;18.270;2023-05-07T09:00:05;101630.22;;;10.94;100.00
51928;BME280;37953;52.806;18.270;2023-05-07T09:02:34;101645.03;;;10.98;100.00
51928;BME280;37953;52.806;18.270;2023-05-07T09:05:05;101641.63;;;10.99;100.00
51928;BME280;37953;52.806;18.270;2023-05-07T09:07:32;101640.75;;;11.00;100.00
51928;BME280;37953;52.806;18.270;2023-05-07T09:09:57;101644.22;;;11.00;100.00
51928;BME280;37953;52.806;18.270;2023-05-07T09:12:25;101644.25;;;11.02;100.00
51928;BME280;37953;52.806;18.270;2023-05-07T09:14:50;101647.72;;;11.01;100.00
51928;BME280;37953;52.806;18.270;2023-05-07T09:17:16;101645.13;;;11.01;100.00
51928;BME280;37953;52.806;18.270;2023-05-07T09:19:44;101648.59;;;11.02;100.00
51928;BME280;37953;52.806;18.270;2023-05-07T09:22:11;101646.91;;;11.04;100.00
51928;BME280;37953;52.806;18.270;2023-05-07T09:24:40;101648.69;;;11.06;100.00
51928;BME280;37953;52.806;18.270;2023-05-07T09:27:07;101654.84;;;11.10;100.00
51928;BME280;37953;52.806;18.270;2023-05-07T09:29:35;101645.38;;;11.13;100.00
51928;BME280;37953;52.806;18.270;2023-05-07T09:32:03;101647.97;;;11.15;100.00
51928;BME280;37953;52.806;18.270;2023-05-07T09:34:29;101652.47;;;11.22;100.00
51928;BME280;37953;52.806;18.270;2023-05-07T09:37:06;101654.28;;;11.26;100.00
51928;BME280;37953;52.806;18.270;2023-05-07T09:39:47;101650.94;;;11.33;100.00
51928;BME280;37953;52.806;18.270;2023-05-07T09:42:13;101653.63;;;11.38;100.00
51928;BME280;37953;52.806;18.270;2023-05-07T09:44:45;101643.31;;;11.44;100.00
51928;BME280;37953;52.806;18.270;2023-05-07T09:47:19;101643.41;;;11.49;100.00
51928;BME280;37953;52.806;18.270;2023-05-07T09:49:47;101653.84;;;11.50;100.00
51928;BME280;37953;52.806;18.270;2023-05-07T09:52:14;101660.81;;;11.53;100.00
51928;BME280;37953;52.806;18.270;2023-05-07T09:54:46;101655.66;;;11.54;100.00
51928;BME280;37953;52.806;18.270;2023-05-07T09:57:13;101653.97;;;11.56;100.00
51928;BME280;37953;52.806;18.270;2023-05-07T09:59:42;101651.44;;;11.61;100.00
51928;BME280;37953;52.806;18.270;2023-05-07T10:02:11;101651.50;;;11.66;100.00
51928;BME280;37953;52.806;18.270;2023-05-07T10:04:39;101657.66;;;11.69;100.00
51928;BME280;37953;52.806;18.270;2023-05-07T10:07:06;101660.25;;;11.69;100.00
51928;BME280;37953;52.806;18.270;2023-05-07T10:09:34;101671.53;;;11.70;100.00
51928;BME280;37953;52.806;18.270;2023-05-07T10:12:05;101664.59;;;11.70;100.00
51928;BME280;37953;52.806;18.270;2023-05-07T10:14:31;101664.63;;;11.72;100.00
51928;BME280;37953;52.806;18.270;2023-05-07T10:16:59;101658.69;;;11.79;100.00
51928;BME280;37953;52.806;18.270;2023-05-07T10:19:26;101661.41;;;11.87;100.00
51928;BME280;37953;52.806;18.270;2023-05-07T10:22:01;101658.03;;;11.91;100.00
51928;BME280;37953;52.806;18.270;2023-05-07T10:24:36;101666.00;;;12.00;100.00
51928;BME280;37953;52.806;18.270;2023-05-07T10:27:07;101660.09;;;12.10;100.00
51928;BME280;37953;52.806;18.270;2023-05-07T10:32:53;101664.75;;;12.30;100.00
51928;BME280;37953;52.806;18.270;2023-05-07T10:35:24;101661.41;;;12.38;100.00
51928;BME280;37953;52.806;18.270;2023-05-07T10:37:52;101654.56;;;12.47;100.00
51928;BME280;37953;52.806;18.270;2023-05-07T10:40:20;101653.72;;;12.49;100.00
51928;BME280;37953;52.806;18.270;2023-05-07T10:43:00;101660.72;;;12.53;100.00
51928;BME280;37953;52.806;18.270;2023-05-07T10:45:32;101662.41;;;12.50;100.00
51928;BME280;37953;52.806;18.270;2023-05-07T10:48:17;101656.28;;;12.46;100.00
51928;BME280;37953;52.806;18.270;2023-05-07T10:51:21;101661.41;;;12.41;100.00
51928;BME280;37953;52.806;18.270;2023-05-07T10:53:48;101666.53;;;12.35;100.00
51928;BME280;37953;52.806;18.270;2023-05-07T10:56:23;101657.88;;;12.36;100.00
51928;BME280;37953;52.806;18.270;2023-05-07T10:59:30;101658.81;;;12.41;100.00
51928;BME280;37953;52.806;18.270;2023-05-07T11:02:02;101651.91;;;12.43;100.00
51928;BME280;37953;52.806;18.270;2023-05-07T11:04:30;101652.78;;;12.42;100.00
51928;BME280;37953;52.806;18.270;2023-05-07T11:09:54;101654.72;;;12.59;100.00
51928;BME280;37953;52.806;18.270;2023-05-07T11:15:11;101659.16;;;12.66;100.00
51928;BME280;37953;52.806;18.270;2023-05-07T11:17:56;101659.19;;;12.69;100.00
51928;BME280;37953;52.806;18.270;2023-05-07T11:26:08;101668.88;;;12.79;97.03
51928;BME280;37953;52.806;18.270;2023-05-07T11:28:42;101659.34;;;12.81;98.98
51928;BME280;37953;52.806;18.270;2023-05-07T11:31:09;101656.81;;;12.88;100.00
51928;BME280;37953;52.806;18.270;2023-05-07T11:33:36;101654.31;;;12.95;100.00
51928;BME280;37953;52.806;18.270;2023-05-07T11:36:08;101652.69;;;13.05;100.00
51928;BME280;37953;52.806;18.270;2023-05-07T11:38:35;101658.00;;;13.13;100.00
51928;BME280;37953;52.806;18.270;2023-05-07T11:41:02;101649.41;;;13.21;100.00
51928;BME280;37953;52.806;18.270;2023-05-07T11:43:34;101655.59;;;13.31;100.00
51928;BME280;37953;52.806;18.270;2023-05-07T11:46:13;101663.56;;;13.42;96.57
51928;BME280;37953;52.806;18.270;2023-05-07T11:48:39;101656.69;;;13.52;97.97
51928;BME280;37953;52.806;18.270;2023-05-07T11:51:07;101663.72;;;13.57;96.44
51928;BME280;37953;52.806;18.270;2023-05-07T11:53:41;101664.59;;;13.59;94.19
51928;BME280;37953;52.806;18.270;2023-05-07T11:56:15;101676.84;;;13.63;92.44
51928;BME280;37953;52.806;18.270;2023-05-07T11:58:46;101666.41;;;13.68;92.54
51928;BME280;37953;52.806;18.270;2023-05-07T12:01:15;101673.41;;;13.71;92.83
51928;BME280;37953;52.806;18.270;2023-05-07T12:03:43;101672.59;;;13.76;94.67
51928;BME280;37953;52.806;18.270;2023-05-07T12:06:10;101661.31;;;13.83;95.44
51928;BME280;37953;52.806;18.270;2023-05-07T12:08:38;101668.34;;;13.89;87.76
51928;BME280;37953;52.806;18.270;2023-05-07T12:11:16;101666.63;;;13.94;86.87
51928;BME280;37953;52.806;18.270;2023-05-07T12:13:44;101668.44;;;14.01;86.96
51928;BME280;37953;52.806;18.270;2023-05-07T12:16:10;101666.72;;;14.05;83.39
51928;BME280;37953;52.806;18.270;2023-05-07T12:18:37;101660.66;;;14.08;79.85
51928;BME280;37953;52.806;18.270;2023-05-07T12:21:04;101661.56;;;14.13;86.69
51928;BME280;37953;52.806;18.270;2023-05-07T12:23:30;101660.75;;;14.21;87.42
51928;BME280;37953;52.806;18.270;2023-05-07T12:25:56;101660.78;;;14.26;88.55
51928;BME280;37953;52.806;18.270;2023-05-07T12:28:22;101671.22;;;14.26;83.94
51928;BME280;37953;52.806;18.270;2023-05-07T12:30:50;101673.84;;;14.24;82.21
51928;BME280;37953;52.806;18.270;2023-05-07T12:33:18;101670.34;;;14.21;82.85
51928;BME280;37953;52.806;18.270;2023-05-07T12:35:47;101674.63;;;14.16;86.98
51928;BME280;37953;52.806;18.270;2023-05-07T12:38:14;101674.63;;;14.10;86.15
51928;BME280;37953;52.806;18.270;2023-05-07T12:40:46;101669.34;;;14.07;84.47
51928;BME280;37953;52.806;18.270;2023-05-07T12:43:25;101672.84;;;14.09;86.41
51928;BME280;37953;52.806;18.270;2023-05-07T12:45:54;101665.03;;;14.13;84.88
51928;BME280;37953;52.806;18.270;2023-05-07T12:48:21;101666.84;;;14.20;84.61
51928;BME280;37953;52.806;18.270;2023-05-07T12:50:51;101668.63;;;14.26;81.72
51928;BME280;37953;52.806;18.270;2023-05-07T12:53:19;101671.31;;;14.35;79.26
51928;BME280;37953;52.806;18.270;2023-05-07T12:55:48;101665.22;;;14.41;77.66